createdAt,value
2022-11-06T00:00:50.160Z,99.99
2022-11-06T00:01:50.184Z,99.99
2022-11-06T00:02:50.213Z,99.99
2022-11-06T00:03:50.156Z,99.99
2022-11-06T00:04:50.121Z,99.99
2022-11-06T00:05:50.108Z,99.99
2022-11-06T00:06:50.111Z,99.99
2022-11-06T00:07:50.071Z,99.99
2022-11-06T00:08:50.103Z,99.99
2022-11-06T00:09:50.037Z,99.99
2022-11-06T00:10:50.034Z,99.99
2022-11-06T00:11:50.037Z,99.99
2022-11-06T00:12:50.025Z,99.99
2022-11-06T00:13:50.028Z,99.99
2022-11-06T00:14:49.971Z,99.99
2022-11-06T00:15:49.964Z,99.99
2022-11-06T00:16:49.937Z,99.99
2022-11-06T00:17:49.967Z,99.99
2022-11-06T00:18:49.965Z,99.99
2022-11-06T00:19:49.923Z,99.99
2022-11-06T00:20:49.937Z,99.99
2022-11-06T00:21:49.929Z,99.99
2022-11-06T00:22:49.889Z,99.99
2022-11-06T00:23:49.935Z,99.99
2022-11-06T00:24:49.866Z,99.99
2022-11-06T00:25:49.873Z,99.99
2022-11-06T00:26:54.195Z,99.99
2022-11-06T00:27:49.846Z,99.99
2022-11-06T00:28:49.870Z,99.99
2022-11-06T00:29:49.856Z,99.99
2022-11-06T00:30:49.812Z,99.99
2022-11-06T00:31:49.795Z,99.99
2022-11-06T00:32:49.764Z,99.99
2022-11-06T00:33:49.819Z,99.99
2022-11-06T00:34:49.769Z,99.99
2022-11-06T00:35:49.746Z,99.99
2022-11-06T00:36:49.747Z,99.99
2022-11-06T00:37:49.735Z,99.99
2022-11-06T00:38:49.755Z,99.99
2022-11-06T00:39:49.704Z,99.99
2022-11-06T00:40:49.711Z,99.99
2022-11-06T00:41:49.689Z,99.99
2022-11-06T00:42:49.676Z,99.99
2022-11-06T00:43:49.663Z,99.99
2022-11-06T00:44:49.692Z,99.99
2022-11-06T00:45:49.650Z,99.99
2022-11-06T00:46:49.630Z,99.99
2022-11-06T00:47:49.616Z,99.99
2022-11-06T00:48:49.601Z,99.99
2022-11-06T00:49:49.637Z,99.99
2022-11-06T00:50:49.593Z,99.99
2022-11-06T00:51:49.559Z,99.99
2022-11-06T00:52:49.549Z,99.99
2022-11-06T00:53:49.539Z,99.99
2022-11-06T00:54:49.541Z,99.99
2022-11-06T00:55:49.540Z,99.99
2022-11-06T00:56:49.515Z,99.99
2022-11-06T00:57:49.513Z,99.99
2022-11-06T00:58:49.485Z,99.99
2022-11-06T00:59:49.627Z,99.99
2022-11-06T01:00:49.464Z,99.99
2022-11-06T01:01:49.532Z,99.99
2022-11-06T01:02:49.551Z,99.99
2022-11-06T01:03:49.429Z,99.99
2022-11-06T01:04:49.438Z,99.99
2022-11-06T01:05:49.406Z,99.99
2022-11-06T01:06:49.410Z,99.99
2022-11-06T01:07:49.389Z,99.99
2022-11-06T01:08:49.390Z,99.99
2022-11-06T01:09:49.409Z,99.99
2022-11-06T01:10:49.371Z,99.99
2022-11-06T01:12:50.322Z,99.99
2022-11-06T01:13:49.331Z,99.99
2022-11-06T01:14:49.451Z,99.99
2022-11-06T01:15:49.335Z,99.99
2022-11-06T01:16:49.289Z,99.99
2022-11-06T01:17:49.289Z,99.99
2022-11-06T01:18:49.282Z,99.99
2022-11-06T01:19:49.290Z,99.99
2022-11-06T01:20:49.245Z,99.99
2022-11-06T01:21:49.231Z,99.99
2022-11-06T01:22:49.308Z,99.99
2022-11-06T01:23:49.213Z,99.99
2022-11-06T01:24:49.314Z,99.99
2022-11-06T01:25:49.195Z,99.99
2022-11-06T01:27:12.092Z,99.99
2022-11-06T01:27:50.171Z,99.99
2022-11-06T01:28:49.167Z,99.99
2022-11-06T01:29:49.182Z,99.99
2022-11-06T01:30:49.192Z,99.99
2022-11-06T01:31:49.112Z,99.99
2022-11-06T01:32:49.097Z,99.99
2022-11-06T01:33:49.113Z,99.99
2022-11-06T01:34:49.124Z,99.99
2022-11-06T01:35:49.086Z,99.99
2022-11-06T01:36:49.065Z,99.99
2022-11-06T01:37:49.073Z,99.99
2022-11-06T01:38:49.045Z,99.99
2022-11-06T01:39:49.079Z,99.99
2022-11-06T01:40:49.025Z,99.99
2022-11-06T01:41:49.014Z,99.99
2022-11-06T01:42:48.986Z,99.99
2022-11-06T01:43:48.992Z,99.99
2022-11-06T01:44:49.009Z,99.99
2022-11-06T01:45:48.959Z,99.99
2022-11-06T01:46:48.957Z,99.99
2022-11-06T01:47:49.029Z,99.99
2022-11-06T01:48:48.918Z,99.99
2022-11-06T01:49:48.948Z,99.99
2022-11-06T01:50:48.906Z,99.99
2022-11-06T01:51:48.909Z,99.99
2022-11-06T01:52:48.884Z,99.99
2022-11-06T01:53:48.894Z,99.99
2022-11-06T01:54:48.920Z,99.99
2022-11-06T01:55:48.881Z,99.99
2022-11-06T01:56:48.852Z,99.99
2022-11-06T01:57:48.849Z,99.99
2022-11-06T01:58:48.831Z,99.99
2022-11-06T01:59:48.859Z,99.99
2022-11-06T02:00:48.805Z,99.99
2022-11-06T02:01:48.904Z,99.99
2022-11-06T02:02:48.930Z,99.99
2022-11-06T02:03:48.768Z,99.99
2022-11-06T02:04:48.807Z,99.99
2022-11-06T02:05:48.746Z,99.99
2022-11-06T02:06:48.745Z,99.99
2022-11-06T02:07:48.716Z,99.99
2022-11-06T02:08:48.708Z,99.99
2022-11-06T02:09:48.705Z,99.99
2022-11-06T02:10:48.717Z,99.99
2022-11-06T02:11:48.679Z,99.99
2022-11-06T02:12:48.667Z,99.99
2022-11-06T02:13:48.685Z,99.99
2022-11-06T02:14:48.641Z,99.99
2022-11-06T02:15:48.667Z,99.99
2022-11-06T02:16:48.634Z,99.99
2022-11-06T02:17:48.647Z,99.99
2022-11-06T02:18:48.622Z,99.99
2022-11-06T02:19:48.617Z,99.99
2022-11-06T02:20:48.638Z,99.99
2022-11-06T02:21:48.564Z,99.99
2022-11-06T02:22:48.568Z,99.99
2022-11-06T02:23:48.560Z,99.99
2022-11-06T02:24:48.550Z,99.99
2022-11-06T02:25:48.569Z,99.99
2022-11-06T02:26:48.530Z,99.99
2022-11-06T02:27:48.513Z,99.99
2022-11-06T02:28:48.507Z,99.99
2022-11-06T02:29:48.497Z,99.99
2022-11-06T02:30:48.512Z,99.99
2022-11-06T02:31:48.470Z,99.99
2022-11-06T02:32:48.447Z,99.99
2022-11-06T02:33:48.455Z,99.99
2022-11-06T02:34:48.424Z,99.99
2022-11-06T02:35:48.450Z,99.99
2022-11-06T02:36:48.417Z,99.99
2022-11-06T02:37:48.406Z,99.99
2022-11-06T02:38:48.379Z,99.99
2022-11-06T02:39:48.392Z,99.99
2022-11-06T02:40:48.436Z,99.99
2022-11-06T02:41:48.350Z,99.99
2022-11-06T02:42:48.352Z,99.99
2022-11-06T02:43:48.332Z,99.99
2022-11-06T02:44:48.342Z,99.99
2022-11-06T02:45:48.326Z,99.99
2022-11-06T02:46:48.288Z,99.99
2022-11-06T02:47:48.285Z,99.99
2022-11-06T02:48:48.264Z,99.99
2022-11-06T02:49:48.263Z,99.99
2022-11-06T02:50:48.314Z,99.99
2022-11-06T02:51:48.251Z,99.99
2022-11-06T02:52:48.223Z,99.99
2022-11-06T02:53:48.223Z,99.99
2022-11-06T02:54:48.203Z,99.99
2022-11-06T02:55:48.238Z,99.99
2022-11-06T02:56:48.191Z,99.99
2022-11-06T02:57:48.201Z,99.99
2022-11-06T02:58:49.287Z,99.99
2022-11-06T02:59:48.165Z,99.99
2022-11-06T03:00:48.163Z,99.99
2022-11-06T03:01:48.260Z,99.99
2022-11-06T03:02:48.260Z,99.99
2022-11-06T03:03:48.109Z,99.99
2022-11-06T03:04:48.107Z,99.99
2022-11-06T03:05:48.133Z,99.99
2022-11-06T03:06:48.086Z,99.99
2022-11-06T03:07:48.063Z,99.99
2022-11-06T03:08:48.067Z,99.99
2022-11-06T03:09:48.051Z,99.99
2022-11-06T03:10:48.076Z,99.99
2022-11-06T03:11:48.024Z,99.99
2022-11-06T03:12:48.002Z,99.99
2022-11-06T03:13:48.027Z,99.99
2022-11-06T03:14:47.991Z,99.99
2022-11-06T03:15:48.008Z,99.99
2022-11-06T03:16:47.963Z,99.99
2022-11-06T03:17:47.975Z,99.99
2022-11-06T03:18:47.954Z,99.99
2022-11-06T03:19:47.932Z,99.99
2022-11-06T03:20:47.941Z,99.99
2022-11-06T03:21:47.904Z,99.99
2022-11-06T03:22:47.912Z,99.99
2022-11-06T03:23:47.878Z,99.99
2022-11-06T03:24:47.861Z,99.99
2022-11-06T03:25:47.894Z,99.99
2022-11-06T03:26:47.871Z,99.99
2022-11-06T03:27:47.836Z,99.99
2022-11-06T03:28:47.825Z,99.99
2022-11-06T03:29:47.834Z,99.99
2022-11-06T03:30:47.842Z,99.99
2022-11-06T03:31:47.809Z,99.99
2022-11-06T03:32:47.788Z,99.99
2022-11-06T03:33:47.791Z,99.99
2022-11-06T03:34:47.775Z,99.99
2022-11-06T03:35:47.795Z,99.99
2022-11-06T03:36:47.743Z,99.99
2022-11-06T03:37:47.730Z,99.99
2022-11-06T03:38:47.729Z,99.99
2022-11-06T03:39:47.712Z,99.99
2022-11-06T03:40:47.725Z,99.99
2022-11-06T03:41:47.688Z,99.99
2022-11-06T03:42:47.677Z,99.99
2022-11-06T03:43:47.680Z,99.99
2022-11-06T03:44:47.646Z,99.99
2022-11-06T03:45:47.679Z,99.99
2022-11-06T03:46:47.629Z,99.99
2022-11-06T03:47:47.629Z,99.99
2022-11-06T03:48:47.609Z,99.99
2022-11-06T03:49:47.609Z,99.99
2022-11-06T03:50:47.632Z,99.99
2022-11-06T03:51:47.565Z,99.99
2022-11-06T03:52:47.577Z,99.99
2022-11-06T03:53:47.554Z,99.99
2022-11-06T03:54:47.532Z,99.99
2022-11-06T03:55:47.572Z,99.99
2022-11-06T03:56:47.520Z,99.99
2022-11-06T03:57:47.514Z,99.99
2022-11-06T03:58:47.622Z,99.99
2022-11-06T03:59:47.484Z,99.99
2022-11-06T04:00:47.517Z,99.99
2022-11-06T04:01:47.628Z,99.99
2022-11-06T04:02:47.641Z,99.99
2022-11-06T04:03:47.440Z,99.99
2022-11-06T04:04:47.408Z,99.99
2022-11-06T04:05:47.411Z,99.99
2022-11-06T04:06:47.448Z,99.99
2022-11-06T04:07:47.392Z,99.99
2022-11-06T04:08:47.387Z,99.99
2022-11-06T04:09:47.366Z,99.99
2022-11-06T04:10:47.370Z,99.99
2022-11-06T04:11:47.394Z,99.99
2022-11-06T04:12:47.358Z,99.99
2022-11-06T04:13:47.341Z,99.99
2022-11-06T04:14:47.325Z,99.99
2022-11-06T04:15:47.313Z,99.99
2022-11-06T04:16:47.327Z,99.99
2022-11-06T04:17:47.293Z,99.99
2022-11-06T04:18:47.259Z,99.99
2022-11-06T04:19:47.268Z,99.99
2022-11-06T04:20:47.245Z,99.99
2022-11-06T04:21:47.275Z,99.99
2022-11-06T04:22:47.227Z,99.99
2022-11-06T04:23:47.230Z,99.99
2022-11-06T04:24:47.198Z,99.99
2022-11-06T04:25:47.191Z,99.99
2022-11-06T04:26:47.200Z,99.99
2022-11-06T04:27:47.165Z,99.99
2022-11-06T04:28:47.158Z,99.99
2022-11-06T04:29:47.145Z,99.99
2022-11-06T04:30:47.139Z,99.99
2022-11-06T04:31:47.178Z,99.99
2022-11-06T04:32:47.128Z,99.99
2022-11-06T04:33:47.110Z,99.99
2022-11-06T04:34:47.092Z,99.99
2022-11-06T04:35:47.092Z,99.99
2022-11-06T04:36:47.115Z,99.99
2022-11-06T04:37:47.071Z,99.99
2022-11-06T04:38:47.057Z,99.99
2022-11-06T04:39:47.044Z,99.99
2022-11-06T04:40:47.008Z,99.99
2022-11-06T04:41:47.030Z,99.99
2022-11-06T04:42:46.988Z,99.99
2022-11-06T04:43:46.979Z,99.99
2022-11-06T04:44:46.993Z,99.99
2022-11-06T04:45:46.970Z,99.99
2022-11-06T04:46:46.996Z,99.99
2022-11-06T04:47:46.944Z,99.99
2022-11-06T04:48:46.953Z,99.99
2022-11-06T04:49:46.923Z,99.99
2022-11-06T04:50:46.917Z,99.99
2022-11-06T04:51:46.941Z,99.99
2022-11-06T04:52:46.899Z,99.99
2022-11-06T04:53:46.884Z,99.99
2022-11-06T04:54:46.877Z,99.99
2022-11-06T04:55:46.862Z,99.99
2022-11-06T04:56:46.887Z,99.99
2022-11-06T04:57:46.869Z,99.99
2022-11-06T04:58:46.860Z,99.99
2022-11-06T04:59:46.818Z,99.99
2022-11-06T05:00:46.966Z,99.99
2022-11-06T05:01:46.955Z,99.99
2022-11-06T05:02:46.823Z,99.99
2022-11-06T05:03:46.766Z,99.99
2022-11-06T05:04:46.775Z,99.99
2022-11-06T05:05:46.749Z,99.99
2022-11-06T05:06:46.738Z,99.99
2022-11-06T05:07:46.759Z,99.99
2022-11-06T05:08:46.711Z,99.99
2022-11-06T05:09:46.708Z,99.99
2022-11-06T05:10:46.700Z,99.99
2022-11-06T05:11:46.689Z,99.99
2022-11-06T05:12:46.710Z,99.99
2022-11-06T05:13:46.669Z,99.99
2022-11-06T05:14:46.650Z,99.99
2022-11-06T05:15:46.627Z,99.99
2022-11-06T05:16:46.631Z,99.99
2022-11-06T05:17:46.637Z,99.99
2022-11-06T05:18:46.611Z,99.99
2022-11-06T05:19:46.572Z,99.99
2022-11-06T05:20:46.565Z,99.99
2022-11-06T05:21:46.585Z,99.99
2022-11-06T05:22:46.576Z,99.99
2022-11-06T05:23:46.544Z,99.99
2022-11-06T05:24:46.530Z,99.99
2022-11-06T05:25:46.532Z,99.99
2022-11-06T05:26:46.560Z,99.99
2022-11-06T05:27:46.504Z,99.99
2022-11-06T05:28:46.497Z,99.99
2022-11-06T05:29:46.491Z,99.99
2022-11-06T05:30:46.489Z,99.99
2022-11-06T05:31:46.469Z,99.99
2022-11-06T05:32:46.491Z,99.99
2022-11-06T05:33:46.429Z,99.99
2022-11-06T05:34:46.430Z,99.99
2022-11-06T05:35:46.402Z,99.99
2022-11-06T05:36:46.410Z,99.99
2022-11-06T05:37:46.430Z,99.99
2022-11-06T05:38:46.401Z,99.99
2022-11-06T05:39:46.370Z,99.99
2022-11-06T05:40:46.354Z,99.99
2022-11-06T05:41:46.349Z,99.99
2022-11-06T05:42:46.375Z,99.99
2022-11-06T05:43:46.325Z,99.99
2022-11-06T05:44:46.338Z,99.99
2022-11-06T05:45:46.309Z,99.99
2022-11-06T05:46:49.260Z,99.99
2022-11-06T05:47:46.309Z,99.99
2022-11-06T05:48:46.282Z,99.99
2022-11-06T05:49:46.251Z,99.99
2022-11-06T05:50:46.265Z,99.99
2022-11-06T05:51:46.229Z,99.99
2022-11-06T05:52:46.243Z,99.99
2022-11-06T05:53:46.207Z,99.99
2022-11-06T05:54:46.218Z,99.99
2022-11-06T05:55:46.181Z,99.99
2022-11-06T05:56:46.191Z,99.99
2022-11-06T05:57:46.187Z,99.99
2022-11-06T05:58:46.146Z,99.99
2022-11-06T05:59:46.139Z,99.99
2022-11-06T06:00:46.132Z,99.99
2022-11-06T06:01:46.263Z,99.99
2022-11-06T06:02:46.262Z,99.99
2022-11-06T06:03:46.104Z,99.99
2022-11-06T06:04:46.088Z,99.99
2022-11-06T06:05:46.061Z,99.99
2022-11-06T06:06:46.078Z,99.99
2022-11-06T06:07:46.092Z,99.99
2022-11-06T06:08:46.055Z,99.99
2022-11-06T06:09:46.013Z,99.99
2022-11-06T06:10:46.031Z,99.99
2022-11-06T06:11:46.011Z,99.99
2022-11-06T06:12:46.020Z,99.99
2022-11-06T06:13:46.023Z,99.99
2022-11-06T06:14:50.228Z,99.99
2022-11-06T06:15:45.967Z,99.99
2022-11-06T06:16:45.950Z,99.99
2022-11-06T06:17:45.949Z,99.99
2022-11-06T06:18:45.973Z,99.99
2022-11-06T06:19:45.925Z,99.99
2022-11-06T06:20:45.915Z,99.99
2022-11-06T06:21:45.934Z,99.99
2022-11-06T06:22:45.889Z,99.99
2022-11-06T06:23:45.910Z,99.99
2022-11-06T06:24:45.909Z,99.99
2022-11-06T06:25:45.847Z,99.99
2022-11-06T06:26:45.850Z,99.99
2022-11-06T06:27:45.825Z,99.99
2022-11-06T06:28:45.841Z,99.99
2022-11-06T06:29:45.808Z,99.99
2022-11-06T06:30:45.816Z,99.99
2022-11-06T06:31:45.813Z,99.99
2022-11-06T06:32:45.773Z,99.99
2022-11-06T06:33:45.786Z,99.99
2022-11-06T06:34:45.755Z,99.99
2022-11-06T06:35:45.734Z,99.99
2022-11-06T06:36:45.721Z,99.99
2022-11-06T06:37:45.705Z,99.99
2022-11-06T06:38:45.737Z,99.99
2022-11-06T06:39:45.704Z,99.99
2022-11-06T06:40:45.696Z,99.99
2022-11-06T06:41:45.663Z,99.99
2022-11-06T06:42:45.674Z,99.99
2022-11-06T06:43:45.679Z,99.99
2022-11-06T06:44:45.653Z,99.99
2022-11-06T06:45:45.618Z,99.99
2022-11-06T06:46:45.641Z,99.99
2022-11-06T06:47:45.602Z,99.99
2022-11-06T06:48:45.641Z,99.99
2022-11-06T06:49:45.593Z,99.99
2022-11-06T06:50:45.572Z,99.99
2022-11-06T06:51:45.549Z,99.99
2022-11-06T06:52:45.565Z,99.99
2022-11-06T06:53:45.571Z,99.99
2022-11-06T06:54:45.532Z,99.99
2022-11-06T06:55:45.512Z,99.99
2022-11-06T06:56:45.517Z,99.99
2022-11-06T06:57:45.486Z,99.99
2022-11-06T06:58:45.517Z,99.99
2022-11-06T06:59:45.475Z,99.99
2022-11-06T07:00:45.530Z,99.99
2022-11-06T07:01:45.556Z,99.99
2022-11-06T07:02:45.430Z,99.99
2022-11-06T07:03:45.449Z,99.99
2022-11-06T07:04:45.417Z,99.99
2022-11-06T07:05:45.409Z,99.99
2022-11-06T07:06:45.398Z,99.99
2022-11-06T07:07:45.378Z,99.99
2022-11-06T07:08:45.394Z,99.99
2022-11-06T07:09:45.345Z,99.99
2022-11-06T07:10:45.365Z,99.99
2022-11-06T07:11:45.325Z,99.99
2022-11-06T07:12:45.333Z,99.99
2022-11-06T07:13:46.335Z,99.99
2022-11-06T07:14:45.300Z,99.99
2022-11-06T07:15:45.288Z,99.99
2022-11-06T07:16:49.695Z,99.99
2022-11-06T07:17:46.279Z,99.99
2022-11-06T07:18:45.377Z,99.99
2022-11-06T07:19:45.242Z,99.99
2022-11-06T07:20:45.248Z,99.99
2022-11-06T07:21:45.281Z,99.99
2022-11-06T07:22:45.248Z,99.99
2022-11-06T07:23:45.211Z,99.99
2022-11-06T07:24:45.322Z,99.99
2022-11-06T07:25:45.164Z,99.99
2022-11-06T07:26:45.174Z,99.99
2022-11-06T07:27:45.143Z,99.99
2022-11-06T07:28:45.177Z,99.99
2022-11-06T07:29:45.766Z,99.99
2022-11-06T07:30:45.327Z,99.99
2022-11-06T07:31:45.113Z,99.99
2022-11-06T07:32:45.106Z,99.99
2022-11-06T07:33:45.168Z,99.99
2022-11-06T07:34:45.131Z,99.99
2022-11-06T07:35:45.056Z,99.99
2022-11-06T07:36:45.069Z,99.99
2022-11-06T07:37:45.031Z,99.99
2022-11-06T07:38:45.039Z,99.99
2022-11-06T07:39:45.024Z,99.99
2022-11-06T07:40:45.016Z,99.99
2022-11-06T07:41:44.972Z,99.99
2022-11-06T07:42:45.015Z,99.99
2022-11-06T07:43:44.948Z,99.99
2022-11-06T07:44:44.977Z,99.70
2022-11-06T07:45:44.951Z,96.78
2022-11-06T07:46:44.918Z,95.14
2022-11-06T07:47:44.929Z,95.86
2022-11-06T07:48:44.911Z,95.34
2022-11-06T07:49:50.576Z,93.74
2022-11-06T07:50:45.889Z,95.54
2022-11-06T07:51:44.892Z,95.24
2022-11-06T07:52:44.877Z,96.23
2022-11-06T07:53:44.866Z,92.56
2022-11-06T07:54:44.873Z,91.13
2022-11-06T07:55:44.831Z,90.60
2022-11-06T07:56:44.830Z,89.84
2022-11-06T07:57:44.805Z,90.86
2022-11-06T07:58:44.811Z,90.05
2022-11-06T07:59:44.808Z,89.18
2022-11-06T08:00:44.830Z,90.64
2022-11-06T08:01:44.872Z,86.73
2022-11-06T08:02:44.777Z,88.02
2022-11-06T08:03:44.755Z,88.59
2022-11-06T08:04:44.806Z,88.57
2022-11-06T08:05:44.731Z,84.94
2022-11-06T08:06:44.701Z,87.14
2022-11-06T08:07:44.707Z,86.45
2022-11-06T08:08:44.685Z,84.78
2022-11-06T08:09:44.719Z,81.41
2022-11-06T08:10:44.676Z,81.59
2022-11-06T08:11:44.655Z,85.53
2022-11-06T08:12:44.653Z,81.66
2022-11-06T08:13:44.633Z,81.49
2022-11-06T08:14:44.648Z,82.07
2022-11-06T08:15:44.611Z,82.78
2022-11-06T08:16:44.598Z,82.23
2022-11-06T08:17:44.591Z,83.37
2022-11-06T08:18:44.570Z,79.77
2022-11-06T08:19:44.596Z,80.04
2022-11-06T08:20:44.561Z,77.94
2022-11-06T08:21:44.544Z,79.41
2022-11-06T08:22:44.525Z,80.55
2022-11-06T08:23:44.506Z,77.37
2022-11-06T08:24:44.530Z,77.85
2022-11-06T08:25:44.488Z,80.84
2022-11-06T08:26:44.494Z,79.44
2022-11-06T08:27:44.467Z,79.10
2022-11-06T08:28:44.473Z,78.26
2022-11-06T08:29:44.491Z,80.29
2022-11-06T08:30:44.461Z,79.45
2022-11-06T08:31:44.429Z,80.23
2022-11-06T08:32:44.417Z,80.87
2022-11-06T08:33:44.412Z,79.00
2022-11-06T08:34:44.436Z,77.57
2022-11-06T08:35:44.384Z,77.64
2022-11-06T08:36:49.123Z,79.24
2022-11-06T08:37:45.372Z,80.29
2022-11-06T08:38:44.347Z,78.09
2022-11-06T08:39:44.379Z,79.86
2022-11-06T08:40:48.151Z,80.68
2022-11-06T08:41:45.315Z,81.66
2022-11-06T08:42:44.337Z,81.04
2022-11-06T08:43:44.289Z,80.82
2022-11-06T08:44:44.316Z,80.48
2022-11-06T08:45:44.268Z,82.87
2022-11-06T08:46:47.854Z,84.77
2022-11-06T08:47:45.255Z,84.00
2022-11-06T08:48:44.230Z,83.01
2022-11-06T08:49:44.316Z,83.93
2022-11-06T08:50:44.209Z,84.44
2022-11-06T08:51:44.211Z,83.36
2022-11-06T08:52:44.192Z,85.16
2022-11-06T08:53:44.237Z,83.73
2022-11-06T08:54:44.210Z,84.00
2022-11-06T08:55:44.156Z,83.79
2022-11-06T08:56:44.154Z,83.69
2022-11-06T08:57:44.133Z,84.30
2022-11-06T08:58:44.132Z,84.17
2022-11-06T08:59:44.152Z,85.03
2022-11-06T09:00:44.170Z,85.50
2022-11-06T09:01:44.151Z,84.38
2022-11-06T09:02:44.057Z,82.75
2022-11-06T09:03:44.060Z,83.36
2022-11-06T09:04:44.085Z,83.25
2022-11-06T09:05:44.057Z,82.13
2022-11-06T09:06:44.024Z,82.34
2022-11-06T09:07:44.029Z,82.34
2022-11-06T09:08:44.011Z,82.27
2022-11-06T09:09:44.037Z,82.34
2022-11-06T09:10:43.989Z,83.05
2022-11-06T09:11:43.964Z,80.80
2022-11-06T09:12:43.959Z,82.75
2022-11-06T09:13:43.958Z,83.05
2022-11-06T09:14:43.970Z,83.01
2022-11-06T09:15:43.931Z,81.91
2022-11-06T09:16:43.915Z,81.37
2022-11-06T09:17:43.914Z,79.52
2022-11-06T09:18:43.885Z,78.61
2022-11-06T09:19:43.917Z,76.73
2022-11-06T09:20:43.906Z,78.00
2022-11-06T09:21:43.873Z,78.13
2022-11-06T09:22:43.855Z,80.42
2022-11-06T09:23:43.853Z,81.07
2022-11-06T09:25:02.492Z,82.84
2022-11-06T09:25:44.832Z,83.42
2022-11-06T09:26:43.828Z,82.09
2022-11-06T09:27:43.840Z,81.65
2022-11-06T09:28:43.795Z,81.07
2022-11-06T09:29:43.809Z,80.87
2022-11-06T09:30:43.768Z,82.42
2022-11-06T09:31:43.760Z,80.24
2022-11-06T09:32:43.754Z,79.63
2022-11-06T09:33:43.753Z,79.02
2022-11-06T09:34:43.716Z,79.12
2022-11-06T09:35:43.733Z,77.34
2022-11-06T09:36:43.682Z,77.75
2022-11-06T09:37:43.668Z,77.45
2022-11-06T09:38:43.663Z,77.69
2022-11-06T09:39:43.648Z,78.41
2022-11-06T09:40:43.679Z,79.05
2022-11-06T09:41:43.630Z,79.91
2022-11-06T09:42:43.626Z,80.99
2022-11-06T09:44:04.088Z,81.05
2022-11-06T09:44:44.609Z,79.39
2022-11-06T09:45:43.645Z,80.00
2022-11-06T09:46:43.572Z,78.30
2022-11-06T09:47:43.572Z,77.22
2022-11-06T09:48:43.560Z,78.75
2022-11-06T09:49:43.644Z,80.79
2022-11-06T09:50:43.569Z,79.36
2022-11-06T09:51:43.519Z,81.40
2022-11-06T09:52:43.522Z,79.43
2022-11-06T09:53:43.539Z,78.41
2022-11-06T09:54:43.480Z,78.34
2022-11-06T09:55:43.510Z,79.25
2022-11-06T09:56:43.464Z,79.63
2022-11-06T09:57:43.472Z,78.81
2022-11-06T09:58:43.444Z,77.55
2022-11-06T09:59:43.439Z,76.93
2022-11-06T10:00:43.573Z,78.16
2022-11-06T10:01:43.504Z,77.86
2022-11-06T10:02:43.520Z,76.39
2022-11-06T10:03:43.449Z,76.70
2022-11-06T10:04:43.386Z,75.27
2022-11-06T10:05:43.415Z,77.07
2022-11-06T10:06:43.339Z,76.70
2022-11-06T10:07:43.346Z,76.59
2022-11-06T10:08:43.328Z,75.98
2022-11-06T10:09:43.334Z,77.51
2022-11-06T10:10:43.338Z,75.98
2022-11-06T10:11:43.320Z,75.57
2022-11-06T10:12:43.304Z,75.44
2022-11-06T10:13:43.294Z,74.62
2022-11-06T10:14:43.270Z,75.27
2022-11-06T10:15:43.275Z,75.37
2022-11-06T10:16:43.233Z,74.86
2022-11-06T10:17:43.220Z,75.95
2022-11-06T10:18:43.219Z,73.71
2022-11-06T10:19:43.206Z,74.62
2022-11-06T10:20:43.227Z,73.47
2022-11-06T10:21:43.187Z,73.94
2022-11-06T10:22:43.195Z,71.87
2022-11-06T10:23:43.204Z,72.01
2022-11-06T10:24:43.146Z,73.74
2022-11-06T10:25:43.183Z,74.35
2022-11-06T10:26:43.128Z,71.30
2022-11-06T10:27:43.133Z,71.60
2022-11-06T10:28:43.096Z,72.14
2022-11-06T10:29:43.133Z,73.16
2022-11-06T10:30:43.132Z,72.14
2022-11-06T10:31:43.086Z,72.31
2022-11-06T10:32:43.122Z,71.53
2022-11-06T10:33:43.048Z,70.34
2022-11-06T10:34:43.049Z,71.56
2022-11-06T10:35:43.023Z,70.89
2022-11-06T10:36:47.315Z,72.14
2022-11-06T10:37:44.033Z,70.35
2022-11-06T10:38:43.005Z,69.30
2022-11-06T10:39:42.982Z,66.66
2022-11-06T10:40:42.962Z,66.76
2022-11-06T10:41:42.986Z,67.10
2022-11-06T10:42:42.957Z,64.97
2022-11-06T10:43:42.948Z,64.43
2022-11-06T10:44:42.920Z,64.73
2022-11-06T10:45:42.930Z,64.44
2022-11-06T10:46:42.926Z,63.56
2022-11-06T10:47:42.900Z,63.50
2022-11-06T10:48:42.895Z,62.59
2022-11-06T10:49:42.892Z,63.50
2022-11-06T10:50:42.868Z,63.39
2022-11-06T10:51:42.864Z,63.65
2022-11-06T10:52:42.851Z,65.68
2022-11-06T10:53:42.812Z,67.07
2022-11-06T10:54:42.799Z,64.73
2022-11-06T10:55:42.783Z,64.40
2022-11-06T10:56:42.824Z,64.30
2022-11-06T10:57:42.767Z,64.18
2022-11-06T10:58:42.778Z,65.23
2022-11-06T10:59:42.743Z,66.89
2022-11-06T11:00:42.792Z,66.76
2022-11-06T11:01:42.880Z,66.32
2022-11-06T11:02:42.766Z,64.97
2022-11-06T11:03:42.707Z,65.14
2022-11-06T11:04:42.705Z,63.89
2022-11-06T11:05:42.703Z,63.43
2022-11-06T11:06:42.707Z,64.24
2022-11-06T11:07:42.669Z,62.62
2022-11-06T11:08:42.647Z,63.98
2022-11-06T11:09:42.658Z,61.11
2022-11-06T11:10:42.637Z,61.01
2022-11-06T11:11:42.647Z,60.07
2022-11-06T11:12:42.627Z,59.34
2022-11-06T11:13:42.616Z,58.86
2022-11-06T11:14:42.589Z,60.61
2022-11-06T11:15:42.577Z,61.08
2022-11-06T11:16:42.596Z,60.93
2022-11-06T11:17:42.554Z,59.21
2022-11-06T11:18:42.541Z,61.71
2022-11-06T11:19:42.529Z,60.16
2022-11-06T11:20:42.498Z,57.56
2022-11-06T11:21:42.518Z,57.84
2022-11-06T11:22:42.527Z,59.20
2022-11-06T11:23:42.485Z,59.56
2022-11-06T11:24:42.468Z,63.06
2022-11-06T11:25:42.469Z,57.76
2022-11-06T11:26:42.478Z,59.53
2022-11-06T11:27:42.437Z,57.26
2022-11-06T11:28:42.420Z,60.29
2022-11-06T11:29:42.395Z,57.23
2022-11-06T11:30:42.415Z,56.27
2022-11-06T11:31:42.414Z,59.51
2022-11-06T11:32:42.403Z,57.89
2022-11-06T11:33:42.360Z,58.87
2022-11-06T11:34:47.646Z,59.12
2022-11-06T11:35:43.356Z,58.69
2022-11-06T11:36:42.370Z,58.14
2022-11-06T11:37:42.336Z,56.29
2022-11-06T11:38:42.311Z,57.43
2022-11-06T11:39:42.321Z,56.92
2022-11-06T11:40:42.284Z,56.55
2022-11-06T11:41:42.292Z,55.71
2022-11-06T11:42:42.302Z,54.83
2022-11-06T11:43:42.266Z,56.88
2022-11-06T11:44:42.253Z,57.14
2022-11-06T11:45:42.235Z,59.47
2022-11-06T11:46:42.219Z,58.05
2022-11-06T11:47:42.298Z,58.76
2022-11-06T11:48:42.213Z,59.11
2022-11-06T11:49:42.194Z,58.30
2022-11-06T11:50:42.176Z,60.19
2022-11-06T11:51:42.165Z,57.74
2022-11-06T11:52:42.869Z,59.83
2022-11-06T11:53:42.152Z,58.23
2022-11-06T11:54:42.122Z,54.94
2022-11-06T11:55:42.135Z,55.87
2022-11-06T11:57:03.668Z,56.02
2022-11-06T11:57:43.157Z,57.53
2022-11-06T11:58:42.090Z,55.87
2022-11-06T11:59:42.078Z,58.04
2022-11-06T12:00:42.074Z,58.45
2022-11-06T12:01:42.111Z,56.43
2022-11-06T12:02:42.085Z,55.49
2022-11-06T12:03:42.018Z,54.86
2022-11-06T12:04:42.047Z,56.76
2022-11-06T12:05:42.016Z,56.38
2022-11-06T12:06:42.016Z,58.33
2022-11-06T12:07:45.925Z,57.79
2022-11-06T12:08:41.970Z,56.81
2022-11-06T12:09:41.956Z,58.00
2022-11-06T12:10:41.963Z,55.93
2022-11-06T12:11:41.937Z,58.96
2022-11-06T12:12:41.974Z,57.69
2022-11-06T12:13:41.934Z,57.69
2022-11-06T12:14:41.935Z,56.27
2022-11-06T12:15:41.923Z,59.11
2022-11-06T12:16:41.893Z,57.26
2022-11-06T12:17:41.905Z,55.98
2022-11-06T12:18:41.871Z,57.87
2022-11-06T12:19:41.856Z,57.26
2022-11-06T12:20:41.866Z,57.67
2022-11-06T12:21:41.826Z,57.52
2022-11-06T12:22:41.856Z,55.40
2022-11-06T12:23:41.817Z,56.33
2022-11-06T12:24:41.811Z,57.04
2022-11-06T12:25:41.783Z,56.33
2022-11-06T12:26:41.777Z,56.94
2022-11-06T12:27:41.795Z,56.61
2022-11-06T12:28:41.744Z,56.20
2022-11-06T12:29:41.754Z,55.32
2022-11-06T12:30:41.719Z,55.82
2022-11-06T12:31:41.722Z,57.49
2022-11-06T12:32:41.748Z,56.45
2022-11-06T12:34:05.224Z,55.21
2022-11-06T12:34:42.681Z,55.65
2022-11-06T12:35:41.666Z,54.91
2022-11-06T12:36:41.639Z,54.18
2022-11-06T12:37:41.705Z,56.61
2022-11-06T12:38:41.644Z,54.79
2022-11-06T12:39:41.631Z,55.90
2022-11-06T12:40:41.607Z,56.48
2022-11-06T12:41:41.618Z,56.71
2022-11-06T12:42:41.644Z,56.81
2022-11-06T12:43:41.608Z,56.02
2022-11-06T12:44:41.554Z,56.91
2022-11-06T12:45:41.576Z,56.53
2022-11-06T12:46:41.545Z,55.95
2022-11-06T12:47:41.559Z,56.94
2022-11-06T12:48:41.522Z,56.40
2022-11-06T12:49:41.499Z,55.60
2022-11-06T12:50:41.509Z,54.96
2022-11-06T12:51:41.493Z,56.78
2022-11-06T12:52:41.510Z,56.43
2022-11-06T12:53:41.484Z,54.56